createdAt,value
2023-03-30T00:01:54.530Z,7.44
2023-03-30T00:05:03.397Z,7.47
2023-03-30T00:08:05.742Z,7.49
2023-03-30T00:11:13.323Z,7.50
2023-03-30T00:14:17.963Z,7.52
2023-03-30T00:17:19.518Z,7.55
2023-03-30T00:20:22.510Z,7.59
2023-03-30T00:26:49.050Z,7.61
2023-03-30T00:29:50.812Z,7.61
2023-03-30T00:32:53.870Z,7.62
2023-03-30T00:35:57.185Z,7.63
2023-03-30T00:38:58.699Z,7.63
2023-03-30T00:42:00.617Z,7.64
2023-03-30T00:45:08.517Z,7.66
2023-03-30T00:48:15.766Z,7.66
2023-03-30T00:51:19.042Z,7.68
2023-03-30T00:54:20.939Z,7.68
2023-03-30T00:57:25.214Z,7.63
2023-03-30T01:00:26.871Z,7.61
2023-03-30T01:03:32.951Z,7.62
2023-03-30T01:06:36.885Z,7.64
2023-03-30T01:09:41.056Z,7.66
2023-03-30T01:12:43.619Z,7.67
2023-03-30T01:16:07.908Z,7.64
2023-03-30T01:19:46.020Z,7.59
2023-03-30T01:23:03.748Z,7.53
2023-03-30T01:26:39.484Z,7.45
2023-03-30T01:30:24.829Z,7.37
2023-03-30T01:33:56.067Z,7.29
2023-03-30T01:37:34.582Z,7.22
2023-03-30T01:40:52.349Z,7.15
2023-03-30T01:44:04.120Z,7.11
2023-03-30T01:47:23.952Z,7.09
2023-03-30T01:50:33.575Z,7.05
2023-03-30T01:53:49.028Z,7.03
2023-03-30T01:56:59.889Z,7.02
2023-03-30T02:00:14.348Z,7.01
2023-03-30T02:03:32.671Z,7.01
2023-03-30T02:06:40.150Z,7.00
2023-03-30T02:09:43.866Z,6.99
2023-03-30T02:12:47.009Z,6.99
2023-03-30T02:15:53.086Z,6.99
2023-03-30T02:18:55.345Z,6.99
2023-03-30T02:21:57.134Z,6.98
2023-03-30T02:24:58.688Z,6.96
2023-03-30T02:28:00.486Z,6.95
2023-03-30T02:31:04.570Z,6.97
2023-03-30T02:34:09.616Z,6.99
2023-03-30T02:37:43.474Z,7.03
2023-03-30T02:40:54.156Z,7.07
2023-03-30T02:44:14.383Z,7.12
2023-03-30T02:47:37.248Z,7.17
2023-03-30T02:50:57.305Z,7.21
2023-03-30T02:54:13.057Z,7.25
2023-03-30T02:57:53.010Z,7.30
2023-03-30T03:01:09.273Z,7.35
2023-03-30T03:04:12.351Z,7.38
2023-03-30T03:07:14.462Z,7.41
2023-03-30T03:10:16.083Z,7.45
2023-03-30T03:13:19.069Z,7.47
2023-03-30T03:16:20.791Z,7.50
2023-03-30T03:19:23.086Z,7.49
2023-03-30T03:22:24.663Z,7.52
2023-03-30T03:25:26.257Z,7.50
2023-03-30T03:28:28.603Z,7.51
2023-03-30T03:31:30.374Z,7.49
2023-03-30T03:34:31.970Z,7.50
2023-03-30T03:37:33.551Z,7.50
2023-03-30T03:40:35.141Z,7.51
2023-03-30T03:43:36.790Z,7.55
2023-03-30T03:46:38.385Z,7.59
2023-03-30T03:49:40.028Z,7.62
2023-03-30T03:52:41.601Z,7.65
2023-03-30T03:55:44.787Z,7.69
2023-03-30T03:58:46.570Z,7.74
2023-03-30T04:01:48.371Z,7.77
2023-03-30T04:04:51.190Z,7.82
2023-03-30T04:07:56.851Z,7.86
2023-03-30T04:11:08.077Z,7.89
2023-03-30T04:14:09.766Z,7.93
2023-03-30T04:17:11.852Z,7.96
2023-03-30T04:20:13.453Z,7.99
2023-03-30T04:23:16.506Z,8.03
2023-03-30T04:26:18.083Z,8.07
2023-03-30T04:29:20.823Z,8.10
2023-03-30T04:32:22.392Z,8.13
2023-03-30T04:35:23.935Z,8.17
2023-03-30T04:38:25.502Z,8.20
2023-03-30T04:41:35.897Z,8.25
2023-03-30T04:44:37.494Z,8.30
2023-03-30T04:47:39.067Z,8.32
2023-03-30T04:50:41.298Z,8.35
2023-03-30T04:53:42.980Z,8.38
2023-03-30T04:56:44.667Z,8.40
2023-03-30T04:59:46.284Z,8.41
2023-03-30T05:02:47.989Z,8.41
2023-03-30T05:05:49.634Z,8.44
2023-03-30T05:08:51.544Z,8.46
2023-03-30T05:11:53.097Z,8.46
2023-03-30T05:14:54.683Z,8.47
2023-03-30T05:17:56.758Z,8.49
2023-03-30T05:20:59.142Z,8.51
2023-03-30T05:24:00.828Z,8.53
2023-03-30T05:27:02.891Z,8.55
2023-03-30T05:30:04.842Z,8.59
2023-03-30T05:33:09.654Z,8.64
2023-03-30T05:36:11.726Z,8.69
2023-03-30T05:39:13.603Z,8.73
2023-03-30T05:42:15.400Z,8.77
2023-03-30T05:45:17.473Z,8.81
2023-03-30T05:48:19.433Z,8.84
2023-03-30T05:51:21.052Z,8.86
2023-03-30T05:54:22.750Z,8.89
2023-03-30T05:57:24.316Z,8.92
2023-03-30T06:00:26.587Z,8.95
2023-03-30T06:03:28.226Z,8.99
2023-03-30T06:06:30.186Z,9.04
2023-03-30T06:09:31.936Z,9.08
2023-03-30T06:12:33.832Z,9.12
2023-03-30T06:15:35.371Z,9.16
2023-03-30T06:18:37.022Z,9.19
2023-03-30T06:21:38.558Z,9.23
2023-03-30T06:24:40.226Z,9.26
2023-03-30T06:27:44.165Z,9.29
2023-03-30T06:30:48.822Z,9.34
2023-03-30T06:33:51.266Z,9.39
2023-03-30T06:36:53.850Z,9.43
2023-03-30T06:39:57.352Z,9.46
2023-03-30T06:42:58.927Z,9.51
2023-03-30T06:46:00.836Z,9.59
2023-03-30T06:49:02.672Z,9.72
2023-03-30T06:52:05.684Z,9.87
2023-03-30T06:55:09.630Z,9.94
2023-03-30T06:58:11.406Z,9.93
2023-03-30T07:01:15.851Z,9.90
2023-03-30T07:04:17.602Z,9.90
2023-03-30T07:07:19.239Z,9.89
2023-03-30T07:10:22.146Z,9.89
2023-03-30T07:13:23.742Z,9.89
2023-03-30T07:16:25.782Z,9.89
2023-03-30T07:19:27.429Z,9.92
2023-03-30T07:22:28.998Z,9.96
2023-03-30T07:25:30.691Z,10.02
2023-03-30T07:28:32.271Z,10.07
2023-03-30T07:31:34.089Z,10.13
2023-03-30T07:34:35.643Z,10.17
2023-03-30T07:37:40.048Z,10.19
2023-03-30T07:40:42.114Z,10.22
2023-03-30T07:43:43.782Z,10.25
2023-03-30T07:46:45.623Z,10.30
2023-03-30T07:49:47.190Z,10.40
2023-03-30T07:52:51.392Z,10.47
2023-03-30T07:55:53.125Z,10.55
2023-03-30T07:58:54.974Z,10.63
2023-03-30T08:01:57.076Z,10.73
2023-03-30T08:05:00.255Z,10.85
2023-03-30T08:08:01.936Z,10.96
2023-03-30T08:11:03.757Z,11.06
2023-03-30T08:14:05.945Z,11.14
2023-03-30T08:17:07.794Z,11.18
2023-03-30T08:20:11.632Z,11.16
2023-03-30T08:23:13.652Z,11.14
2023-03-30T08:26:15.214Z,11.14
2023-03-30T08:29:17.138Z,11.12
2023-03-30T08:32:18.723Z,11.08
2023-03-30T08:35:20.372Z,11.07
2023-03-30T08:38:21.956Z,11.07
2023-03-30T08:41:29.493Z,11.09
2023-03-30T08:44:38.068Z,11.11
2023-03-30T08:47:44.103Z,11.10
2023-03-30T08:51:09.157Z,11.09
2023-03-30T08:54:19.422Z,11.08
2023-03-30T08:57:33.373Z,11.06
2023-03-30T09:01:06.409Z,11.08
2023-03-30T09:04:21.302Z,11.16
2023-03-30T09:07:30.113Z,11.29
2023-03-30T09:10:40.043Z,11.38
2023-03-30T09:13:45.807Z,11.47
2023-03-30T09:17:13.585Z,11.57
2023-03-30T09:20:18.731Z,11.67
2023-03-30T09:23:20.317Z,11.82
2023-03-30T09:26:47.790Z,11.95
2023-03-30T09:29:52.239Z,12.01
2023-03-30T09:33:00.916Z,12.05
2023-03-30T09:36:14.957Z,12.04
2023-03-30T09:39:19.783Z,11.97
2023-03-30T09:42:21.281Z,11.95
2023-03-30T09:45:28.241Z,11.95
2023-03-30T09:48:39.112Z,11.95
2023-03-30T09:52:00.863Z,11.92
2023-03-30T09:55:20.653Z,11.89
2023-03-30T09:58:33.659Z,11.97
2023-03-30T10:01:38.085Z,12.03
2023-03-30T10:04:58.511Z,12.10
2023-03-30T10:08:03.395Z,12.12
2023-03-30T10:11:06.654Z,12.19
2023-03-30T10:14:32.268Z,12.30
2023-03-30T10:17:34.168Z,12.36
2023-03-30T10:20:36.792Z,12.38
2023-03-30T10:23:41.936Z,12.42
2023-03-30T10:26:47.052Z,12.47
2023-03-30T10:29:50.826Z,12.48
2023-03-30T10:32:55.503Z,12.62
2023-03-30T10:36:03.142Z,12.72
2023-03-30T10:39:26.344Z,12.76
2023-03-30T10:42:32.901Z,12.75
2023-03-30T10:45:34.367Z,12.71
2023-03-30T10:49:20.465Z,12.63
2023-03-30T10:53:10.515Z,12.51
2023-03-30T10:56:43.164Z,12.40
2023-03-30T11:00:00.299Z,12.30
2023-03-30T11:03:12.832Z,12.13
2023-03-30T11:06:25.075Z,12.02
2023-03-30T11:09:36.216Z,11.98
2023-03-30T11:12:45.992Z,12.02
2023-03-30T11:15:54.271Z,12.06
2023-03-30T11:19:01.846Z,12.14
2023-03-30T11:22:16.773Z,12.12
2023-03-30T11:25:25.573Z,12.05
2023-03-30T11:28:54.830Z,12.01
2023-03-30T11:32:02.165Z,12.09
2023-03-30T11:35:17.282Z,12.18
2023-03-30T11:38:24.710Z,12.18
2023-03-30T11:41:40.326Z,12.13
2023-03-30T11:44:42.460Z,12.07
2023-03-30T11:48:11.959Z,12.03
2023-03-30T11:51:35.644Z,12.07
2023-03-30T11:55:01.859Z,12.13
2023-03-30T11:58:38.139Z,12.14
2023-03-30T12:01:50.261Z,12.09
2023-03-30T12:05:01.791Z,12.09
2023-03-30T12:08:20.985Z,12.06
2023-03-30T12:11:49.850Z,12.01
2023-03-30T12:15:26.688Z,11.94
2023-03-30T12:18:37.186Z,11.90
2023-03-30T12:21:49.737Z,11.88
2023-03-30T12:24:53.154Z,11.89
2023-03-30T12:28:16.856Z,11.91
2023-03-30T12:31:18.580Z,11.93
2023-03-30T12:34:21.378Z,11.98
2023-03-30T12:37:35.440Z,12.11
2023-03-30T12:40:38.244Z,12.20
2023-03-30T12:43:57.945Z,12.31
2023-03-30T12:47:33.664Z,12.33
2023-03-30T12:50:57.561Z,12.30
2023-03-30T12:54:23.264Z,12.31
2023-03-30T12:57:57.169Z,12.31
2023-03-30T13:01:14.000Z,12.28
2023-03-30T13:04:24.003Z,12.25
2023-03-30T13:07:32.042Z,12.24
2023-03-30T13:10:38.619Z,12.25
2023-03-30T13:14:00.954Z,12.26
2023-03-30T13:17:02.731Z,12.30
2023-03-30T13:20:29.151Z,12.32
2023-03-30T13:23:35.517Z,12.34
2023-03-30T13:26:43.870Z,12.41
2023-03-30T13:30:02.389Z,12.45
2023-03-30T13:33:18.962Z,12.48
2023-03-30T13:36:29.996Z,12.48
2023-03-30T13:39:42.873Z,12.48
2023-03-30T13:42:47.101Z,12.46
2023-03-30T13:46:16.939Z,12.43
2023-03-30T13:49:19.207Z,12.38
2023-03-30T13:52:39.391Z,12.40
2023-03-30T13:55:48.116Z,12.42
2023-03-30T13:59:03.427Z,12.43
2023-03-30T14:02:05.944Z,12.41
2023-03-30T14:05:20.673Z,12.34
2023-03-30T14:08:22.234Z,12.25
2023-03-30T14:11:33.438Z,12.19
2023-03-30T14:14:38.448Z,12.14
2023-03-30T14:17:40.060Z,12.10
2023-03-30T14:20:57.183Z,12.05
2023-03-30T14:24:02.419Z,12.04
2023-03-30T14:27:22.440Z,12.06
2023-03-30T14:30:29.037Z,12.05
2023-03-30T14:33:32.974Z,12.09
2023-03-30T14:36:34.581Z,12.16
2023-03-30T14:39:52.630Z,12.27
2023-03-30T14:42:54.261Z,12.34
2023-03-30T14:45:59.666Z,12.43
2023-03-30T14:49:01.625Z,12.55
2023-03-30T14:52:08.995Z,12.77
2023-03-30T14:55:18.865Z,12.90
2023-03-30T14:58:21.164Z,13.00
2023-03-30T15:01:31.246Z,13.08
2023-03-30T15:04:37.512Z,13.08
2023-03-30T15:07:40.159Z,13.05
2023-03-30T15:10:49.738Z,13.04
2023-03-30T15:14:01.694Z,13.00
2023-03-30T15:17:11.095Z,12.95
2023-03-30T15:20:14.073Z,12.93
2023-03-30T15:23:16.656Z,12.92
2023-03-30T15:26:19.107Z,12.89
2023-03-30T15:29:23.187Z,12.88
2023-03-30T15:32:35.287Z,12.82
2023-03-30T15:35:37.789Z,12.75
2023-03-30T15:38:51.432Z,12.64
2023-03-30T15:41:55.996Z,12.58
2023-03-30T15:45:12.107Z,12.53
2023-03-30T15:48:13.738Z,12.47
2023-03-30T15:51:28.848Z,12.44
2023-03-30T15:54:40.427Z,12.40
2023-03-30T15:57:45.995Z,12.39
2023-03-30T16:00:48.467Z,12.42
2023-03-30T16:04:01.471Z,12.46
2023-03-30T16:07:13.986Z,12.46
2023-03-30T16:10:26.425Z,12.43
2023-03-30T16:13:28.039Z,12.42
2023-03-30T16:16:29.859Z,12.40
2023-03-30T16:19:31.473Z,12.35
2023-03-30T16:22:33.038Z,12.31
2023-03-30T16:25:44.802Z,12.27
2023-03-30T16:28:50.986Z,12.25
2023-03-30T16:31:53.858Z,12.21
2023-03-30T16:34:55.613Z,12.19
2023-03-30T16:37:58.498Z,12.17
2023-03-30T16:41:01.549Z,12.16
2023-03-30T16:44:03.109Z,12.13
2023-03-30T16:47:04.954Z,12.10
2023-03-30T16:50:40.914Z,12.06
2023-03-30T16:53:42.621Z,12.00
2023-03-30T16:56:44.327Z,11.90
2023-03-30T16:59:45.861Z,11.77
2023-03-30T17:02:50.568Z,11.65
2023-03-30T17:05:52.222Z,11.53
2023-03-30T17:08:55.460Z,11.43
2023-03-30T17:11:57.337Z,11.36
2023-03-30T17:14:58.905Z,11.29
2023-03-30T17:18:00.523Z,11.22
2023-03-30T17:21:02.247Z,11.17
2023-03-30T17:24:03.972Z,11.11
2023-03-30T17:27:06.298Z,11.09
2023-03-30T17:30:34.393Z,11.04
2023-03-30T17:33:36.248Z,11.11
2023-03-30T17:36:38.974Z,11.48
2023-03-30T17:39:40.633Z,11.46
2023-03-30T17:42:42.420Z,11.40
2023-03-30T17:45:44.658Z,11.34
2023-03-30T17:48:46.412Z,11.25
2023-03-30T17:51:47.918Z,11.17
2023-03-30T17:54:49.443Z,11.17
2023-03-30T17:57:51.976Z,11.16
2023-03-30T18:00:53.893Z,11.10
2023-03-30T18:03:55.480Z,11.08
2023-03-30T18:06:57.170Z,11.04
2023-03-30T18:09:58.743Z,11.01
2023-03-30T18:13:00.379Z,10.98
2023-03-30T18:16:02.161Z,10.95
2023-03-30T18:19:03.760Z,10.91
2023-03-30T18:22:06.607Z,10.87
2023-03-30T18:25:09.717Z,10.85
2023-03-30T18:28:16.925Z,10.77
2023-03-30T18:31:18.500Z,10.72
2023-03-30T18:34:20.261Z,10.68
2023-03-30T18:37:21.843Z,10.65
2023-03-30T18:40:32.678Z,10.59
2023-03-30T18:43:35.742Z,10.54
2023-03-30T18:46:37.315Z,10.50
2023-03-30T18:49:39.404Z,10.46
2023-03-30T18:52:41.017Z,10.44
2023-03-30T18:55:47.586Z,10.42
2023-03-30T18:58:49.236Z,10.41
2023-03-30T19:01:51.480Z,10.41
2023-03-30T19:04:55.652Z,10.39
2023-03-30T19:07:57.630Z,10.40
2023-03-30T19:10:59.185Z,10.39
2023-03-30T19:14:02.177Z,10.36
2023-03-30T19:17:04.042Z,10.34
2023-03-30T19:20:07.106Z,10.32
2023-03-30T19:23:12.381Z,10.27
2023-03-30T19:26:14.125Z,10.24
2023-03-30T19:29:15.777Z,10.21
2023-03-30T19:32:19.549Z,10.17
2023-03-30T19:35:21.219Z,10.13
2023-03-30T19:38:22.878Z,10.09
2023-03-30T19:41:24.481Z,10.05
2023-03-30T19:44:26.083Z,9.99
2023-03-30T19:47:30.879Z,9.93
2023-03-30T19:50:32.714Z,9.86
2023-03-30T19:53:35.734Z,9.83
2023-03-30T19:56:37.438Z,9.81
2023-03-30T19:59:39.088Z,9.80
2023-03-30T20:02:41.935Z,9.81
2023-03-30T20:05:50.116Z,9.80
2023-03-30T20:08:53.462Z,9.79
2023-03-30T20:11:55.973Z,9.78
2023-03-30T20:14:58.944Z,9.78
2023-03-30T20:18:00.740Z,9.76
2023-03-30T20:21:03.652Z,9.75
2023-03-30T20:24:05.784Z,9.76
2023-03-30T20:27:07.424Z,9.76
2023-03-30T20:30:09.765Z,9.74
2023-03-30T20:33:11.359Z,9.72
2023-03-30T20:36:13.052Z,9.70
2023-03-30T20:39:14.662Z,9.72
2023-03-30T20:42:18.145Z,9.72
2023-03-30T20:45:26.019Z,9.73
2023-03-30T20:48:39.282Z,9.76
2023-03-30T20:51:43.264Z,9.78
2023-03-30T20:54:45.081Z,9.81
2023-03-30T20:57:46.636Z,9.81
2023-03-30T21:00:52.136Z,9.84
2023-03-30T21:04:01.874Z,9.84
2023-03-30T21:07:03.559Z,9.81
2023-03-30T21:10:05.862Z,9.79
2023-03-30T21:13:07.424Z,9.77
2023-03-30T21:16:09.118Z,9.76
2023-03-30T21:19:11.377Z,9.75
2023-03-30T21:22:12.937Z,9.72
2023-03-30T21:25:14.799Z,9.70
2023-03-30T21:28:16.375Z,9.68
2023-03-30T21:31:17.985Z,9.65
2023-03-30T21:34:20.256Z,9.65
2023-03-30T21:37:21.759Z,9.64
2023-03-30T21:40:23.349Z,9.62
2023-03-30T21:43:25.762Z,9.62
2023-03-30T21:46:27.456Z,9.63
2023-03-30T21:49:29.022Z,9.63
2023-03-30T21:52:31.186Z,9.63
2023-03-30T21:55:32.710Z,9.59
2023-03-30T21:58:34.502Z,9.58
2023-03-30T22:01:36.115Z,9.59
2023-03-30T22:04:37.839Z,9.60
2023-03-30T22:07:40.075Z,9.61
2023-03-30T22:10:42.505Z,9.61
2023-03-30T22:13:46.089Z,9.60
2023-03-30T22:16:49.396Z,9.77
2023-03-30T22:19:51.948Z,9.77
2023-03-30T22:22:53.628Z,9.76
2023-03-30T22:25:55.772Z,9.72
2023-03-30T22:28:57.520Z,9.67
2023-03-30T22:31:59.183Z,9.62
2023-03-30T22:35:01.031Z,9.55
2023-03-30T22:38:02.638Z,9.52
2023-03-30T22:41:07.601Z,9.49
2023-03-30T22:44:09.699Z,9.46
2023-03-30T22:47:11.289Z,9.43
2023-03-30T22:50:12.850Z,9.41
2023-03-30T22:53:14.375Z,9.40
2023-03-30T22:56:16.376Z,9.38
2023-03-30T22:59:17.920Z,9.35
2023-03-30T23:02:19.485Z,9.32
2023-03-30T23:05:21.451Z,9.28
2023-03-30T23:08:23.997Z,9.25
2023-03-30T23:11:26.432Z,9.25
2023-03-30T23:14:28.211Z,9.22
2023-03-30T23:17:32.608Z,9.20
2023-03-30T23:20:34.182Z,9.19
2023-03-30T23:23:36.339Z,9.18
2023-03-30T23:26:38.049Z,9.14
2023-03-30T23:29:39.747Z,9.14
2023-03-30T23:32:41.900Z,9.14
2023-03-30T23:35:49.494Z,9.15
2023-03-30T23:38:57.177Z,9.14
2023-03-30T23:41:58.768Z,9.13
2023-03-30T23:45:00.486Z,9.13
2023-03-30T23:48:02.116Z,9.13
2023-03-30T23:51:04.040Z,9.12
2023-03-30T23:54:07.146Z,9.11
2023-03-30T23:57:09.803Z,9.11
